createdAt,value
2018-02-14T00:00:36.682Z,0.00
2018-02-14T00:01:36.611Z,0.00
2018-02-14T00:02:36.578Z,0.00
2018-02-14T00:03:36.552Z,0.00
2018-02-14T00:04:36.513Z,0.00
2018-02-14T00:05:36.540Z,0.00
2018-02-14T00:06:36.442Z,0.00
2018-02-14T00:07:36.412Z,0.00
2018-02-14T00:08:36.376Z,0.00
2018-02-14T00:09:36.353Z,0.00
2018-02-14T00:10:36.342Z,0.00
2018-02-14T00:11:36.284Z,0.00
2018-02-14T00:12:36.253Z,0.00
2018-02-14T00:13:36.211Z,0.00
2018-02-14T00:14:36.180Z,0.00
2018-02-14T00:15:36.171Z,0.00
2018-02-14T00:16:36.109Z,0.00
2018-02-14T00:17:36.079Z,0.00
2018-02-14T00:18:36.050Z,0.00
2018-02-14T00:19:36.017Z,0.00
2018-02-14T00:20:36.004Z,0.00
2018-02-14T00:21:35.945Z,0.00
2018-02-14T00:22:35.913Z,0.00
2018-02-14T00:23:35.880Z,0.00
2018-02-14T00:24:35.868Z,0.00
2018-02-14T00:25:35.848Z,0.00
2018-02-14T00:26:35.780Z,0.00
2018-02-14T00:27:35.749Z,0.00
2018-02-14T00:28:35.708Z,0.00
2018-02-14T00:29:35.676Z,0.00
2018-02-14T00:30:35.668Z,0.00
2018-02-14T00:31:35.611Z,0.00
2018-02-14T00:32:35.582Z,0.00
2018-02-14T00:33:35.559Z,0.00
2018-02-14T00:34:35.521Z,0.00
2018-02-14T00:35:35.499Z,0.00
2018-02-14T00:36:35.451Z,0.00
2018-02-14T00:37:35.418Z,0.00
2018-02-14T00:38:35.384Z,0.00
2018-02-14T00:39:35.351Z,0.00
2018-02-14T00:40:35.335Z,0.00
2018-02-14T00:41:35.276Z,0.00
2018-02-14T00:42:35.243Z,0.00
2018-02-14T00:43:35.210Z,0.00
2018-02-14T00:44:35.173Z,0.00
2018-02-14T00:45:35.168Z,0.00
2018-02-14T00:46:35.110Z,0.00
2018-02-14T00:47:35.079Z,0.00
2018-02-14T00:48:35.041Z,0.00
2018-02-14T00:49:35.005Z,0.00
2018-02-14T00:50:35.006Z,0.00
2018-02-14T00:51:34.949Z,0.00
2018-02-14T00:52:34.906Z,0.00
2018-02-14T00:53:34.872Z,0.00
2018-02-14T00:54:34.837Z,0.00
2018-02-14T00:55:34.838Z,0.00
2018-02-14T00:56:34.768Z,0.00
2018-02-14T00:57:34.743Z,0.00
2018-02-14T00:58:34.703Z,0.00
2018-02-14T00:59:34.672Z,0.00
2018-02-14T01:00:34.673Z,0.00
2018-02-14T01:01:34.613Z,0.00
2018-02-14T01:02:34.566Z,0.00
2018-02-14T01:03:34.542Z,0.00
2018-02-14T01:04:34.506Z,0.00
2018-02-14T01:05:34.504Z,0.00
2018-02-14T01:06:34.439Z,0.00
2018-02-14T01:07:34.400Z,0.00
2018-02-14T01:08:34.372Z,0.00
2018-02-14T01:09:34.337Z,0.00
2018-02-14T01:10:34.330Z,0.00
2018-02-14T01:11:34.272Z,0.00
2018-02-14T01:12:34.237Z,0.00
2018-02-14T01:13:34.203Z,0.00
2018-02-14T01:14:34.172Z,0.00
2018-02-14T01:15:34.164Z,0.00
2018-02-14T01:16:34.112Z,0.00
2018-02-14T01:17:34.076Z,0.00
2018-02-14T01:18:34.035Z,0.00
2018-02-14T01:19:34.001Z,0.00
2018-02-14T01:20:33.987Z,0.00
2018-02-14T01:21:33.940Z,0.00
2018-02-14T01:22:33.904Z,0.00
2018-02-14T01:23:33.862Z,0.00
2018-02-14T01:24:33.843Z,0.00
2018-02-14T01:25:33.847Z,0.00
2018-02-14T01:26:33.787Z,0.00
2018-02-14T01:27:33.726Z,0.00
2018-02-14T01:28:33.700Z,0.00
2018-02-14T01:29:33.660Z,0.00
2018-02-14T01:30:33.667Z,0.00
2018-02-14T01:31:33.603Z,0.00
2018-02-14T01:32:33.569Z,0.00
2018-02-14T01:33:33.530Z,0.00
2018-02-14T01:34:33.493Z,0.00
2018-02-14T01:35:33.489Z,0.00
2018-02-14T01:36:33.429Z,0.00
2018-02-14T01:37:33.402Z,0.00
2018-02-14T01:38:33.361Z,0.00
2018-02-14T01:39:33.323Z,0.00
2018-02-14T01:40:33.318Z,0.00
2018-02-14T01:41:33.257Z,0.00
2018-02-14T01:42:33.224Z,0.00
2018-02-14T01:43:33.193Z,0.00
2018-02-14T01:44:33.157Z,0.00
2018-02-14T01:45:33.151Z,0.00
2018-02-14T01:46:33.089Z,0.00
2018-02-14T01:47:33.052Z,0.00
2018-02-14T01:48:33.016Z,0.00
2018-02-14T01:49:32.987Z,0.00
2018-02-14T01:50:33.320Z,0.00
2018-02-14T01:51:32.931Z,0.00
2018-02-14T01:52:32.901Z,0.00
2018-02-14T01:53:32.847Z,0.00
2018-02-14T01:54:32.816Z,0.00
2018-02-14T01:55:32.808Z,0.00
2018-02-14T01:56:32.754Z,0.00
2018-02-14T01:57:32.729Z,0.00
2018-02-14T01:58:32.695Z,0.00
2018-02-14T01:59:32.645Z,0.00
2018-02-14T02:00:32.643Z,0.00
2018-02-14T02:01:32.583Z,0.00
2018-02-14T02:02:32.544Z,0.00
2018-02-14T02:03:32.513Z,0.00
2018-02-14T02:04:32.512Z,0.00
2018-02-14T02:05:32.478Z,0.00
2018-02-14T02:06:32.432Z,0.00
2018-02-14T02:07:32.387Z,0.00
2018-02-14T02:08:32.342Z,0.00
2018-02-14T02:09:32.310Z,0.00
2018-02-14T02:10:32.311Z,0.00
2018-02-14T02:11:32.241Z,0.00
2018-02-14T02:12:32.224Z,0.00
2018-02-14T02:13:32.173Z,0.00
2018-02-14T02:14:32.139Z,0.00
2018-02-14T02:15:32.139Z,0.00
2018-02-14T02:16:32.070Z,0.00
2018-02-14T02:17:32.036Z,0.00
2018-02-14T02:18:32.003Z,0.00
2018-02-14T02:19:31.970Z,0.00
2018-02-14T02:20:31.958Z,0.00
2018-02-14T02:21:31.903Z,0.00
2018-02-14T02:22:31.943Z,0.00
2018-02-14T02:23:31.842Z,0.00
2018-02-14T02:24:31.801Z,0.00
2018-02-14T02:25:31.798Z,0.00
2018-02-14T02:26:31.737Z,0.00
2018-02-14T02:27:31.699Z,0.00
2018-02-14T02:28:31.665Z,0.00
2018-02-14T02:29:31.639Z,0.00
2018-02-14T02:30:31.623Z,0.00
2018-02-14T02:31:31.565Z,0.00
2018-02-14T02:32:31.530Z,0.00
2018-02-14T02:33:31.494Z,0.00
2018-02-14T02:34:31.460Z,0.00
2018-02-14T02:35:31.457Z,0.00
2018-02-14T02:36:31.396Z,0.00
2018-02-14T02:37:31.364Z,0.00
2018-02-14T02:38:31.327Z,0.00
2018-02-14T02:39:31.293Z,0.00
2018-02-14T02:40:31.289Z,0.00
2018-02-14T02:41:31.224Z,0.00
2018-02-14T02:42:31.192Z,0.00
2018-02-14T02:43:31.158Z,0.00
2018-02-14T02:44:31.128Z,0.00
2018-02-14T02:45:31.127Z,0.00
2018-02-14T02:46:31.054Z,0.00
2018-02-14T02:47:31.019Z,0.00
2018-02-14T02:48:30.989Z,0.00
2018-02-14T02:49:30.960Z,0.00
2018-02-14T02:50:30.947Z,0.00
2018-02-14T02:51:30.885Z,0.00
2018-02-14T02:52:30.851Z,0.00
2018-02-14T02:53:30.826Z,0.00
2018-02-14T02:54:30.784Z,0.00
2018-02-14T02:55:30.792Z,0.00
2018-02-14T02:56:30.716Z,0.00
2018-02-14T02:57:30.681Z,0.00
2018-02-14T02:58:30.648Z,0.00
2018-02-14T02:59:30.615Z,0.00
2018-02-14T03:00:30.605Z,0.00
2018-02-14T03:01:30.549Z,0.00
2018-02-14T03:02:30.517Z,0.00
2018-02-14T03:03:30.479Z,0.00
2018-02-14T03:04:30.450Z,0.00
2018-02-14T03:05:30.450Z,0.00
2018-02-14T03:06:30.379Z,0.00
2018-02-14T03:07:30.369Z,0.00
2018-02-14T03:08:30.306Z,0.00
2018-02-14T03:09:30.281Z,0.00
2018-02-14T03:10:30.266Z,0.00
2018-02-14T03:11:30.208Z,0.00
2018-02-14T03:12:30.172Z,0.00
2018-02-14T03:13:30.141Z,0.00
2018-02-14T03:14:30.105Z,0.00
2018-02-14T03:15:30.098Z,0.00
2018-02-14T03:16:30.034Z,0.00
2018-02-14T03:17:29.999Z,0.00
2018-02-14T03:18:29.967Z,0.00
2018-02-14T03:19:29.937Z,0.00
2018-02-14T03:20:29.925Z,0.00
2018-02-14T03:21:30.719Z,0.00
2018-02-14T03:22:29.832Z,0.00
2018-02-14T03:23:29.796Z,0.00
2018-02-14T03:24:29.768Z,0.00
2018-02-14T03:25:29.750Z,0.00
2018-02-14T03:26:29.698Z,0.00
2018-02-14T03:27:29.660Z,0.00
2018-02-14T03:28:29.628Z,0.00
2018-02-14T03:29:29.589Z,0.00
2018-02-14T03:30:29.584Z,0.00
2018-02-14T03:31:29.522Z,0.00
2018-02-14T03:32:29.489Z,0.00
2018-02-14T03:33:29.459Z,0.00
2018-02-14T03:34:29.419Z,0.00
2018-02-14T03:35:29.412Z,0.00
2018-02-14T03:36:29.349Z,0.00
2018-02-14T03:37:29.325Z,0.00
2018-02-14T03:38:29.284Z,0.00
2018-02-14T03:39:29.249Z,0.00
2018-02-14T03:40:29.244Z,0.00
2018-02-14T03:41:29.180Z,0.00
2018-02-14T03:42:29.147Z,0.00
2018-02-14T03:43:29.109Z,0.00
2018-02-14T03:44:29.080Z,0.00
2018-02-14T03:45:29.350Z,0.00
2018-02-14T03:46:29.008Z,0.00
2018-02-14T03:47:28.994Z,0.00
2018-02-14T03:48:28.941Z,0.00
2018-02-14T03:49:28.923Z,0.00
2018-02-14T03:50:28.905Z,0.00
2018-02-14T03:51:28.840Z,0.00
2018-02-14T03:52:28.803Z,0.00
2018-02-14T03:53:28.770Z,0.00
2018-02-14T03:54:28.739Z,0.00
2018-02-14T03:55:28.727Z,0.00
2018-02-14T03:56:28.676Z,0.00
2018-02-14T03:57:28.637Z,0.00
2018-02-14T03:58:28.601Z,0.00
2018-02-14T03:59:28.566Z,0.00
2018-02-14T04:00:28.556Z,0.00
2018-02-14T04:01:28.510Z,0.00
2018-02-14T04:02:28.465Z,0.00
2018-02-14T04:03:28.446Z,0.00
2018-02-14T04:04:28.394Z,0.00
2018-02-14T04:05:28.387Z,0.00
2018-02-14T04:06:28.326Z,0.00
2018-02-14T04:07:28.302Z,0.00
2018-02-14T04:08:28.256Z,0.00
2018-02-14T04:09:28.227Z,0.00
2018-02-14T04:10:28.218Z,0.00
2018-02-14T04:11:28.154Z,0.00
2018-02-14T04:12:28.124Z,0.00
2018-02-14T04:13:28.096Z,0.00
2018-02-14T04:14:28.055Z,0.00
2018-02-14T04:15:28.043Z,0.00
2018-02-14T04:16:27.988Z,0.00
2018-02-14T04:17:27.949Z,0.00
2018-02-14T04:18:27.924Z,0.00
2018-02-14T04:19:27.887Z,0.00
2018-02-14T04:20:27.890Z,0.00
2018-02-14T04:21:27.823Z,0.00
2018-02-14T04:22:27.782Z,0.00
2018-02-14T04:23:27.747Z,0.00
2018-02-14T04:24:27.706Z,0.00
2018-02-14T04:25:27.705Z,0.00
2018-02-14T04:26:27.658Z,0.00
2018-02-14T04:27:27.651Z,0.00
2018-02-14T04:28:27.592Z,0.00
2018-02-14T04:29:27.542Z,0.00
2018-02-14T04:30:27.533Z,0.00
2018-02-14T04:31:27.471Z,0.00
2018-02-14T04:32:27.437Z,0.00
2018-02-14T04:33:27.403Z,0.00
2018-02-14T04:34:27.369Z,0.00
2018-02-14T04:35:27.360Z,0.00
2018-02-14T04:36:27.299Z,0.00
2018-02-14T04:37:27.264Z,0.00
2018-02-14T04:38:27.234Z,0.00
2018-02-14T04:39:27.197Z,0.00
2018-02-14T04:40:27.233Z,0.00
2018-02-14T04:41:27.129Z,0.00
2018-02-14T04:42:27.100Z,0.00
2018-02-14T04:43:27.064Z,0.00
2018-02-14T04:44:27.025Z,0.00
2018-02-14T04:45:27.015Z,0.00
2018-02-14T04:46:26.959Z,0.00
2018-02-14T04:47:26.925Z,0.00
2018-02-14T04:48:26.893Z,0.00
2018-02-14T04:49:26.856Z,0.00
2018-02-14T04:50:26.846Z,0.00
2018-02-14T04:51:26.784Z,0.00
2018-02-14T04:52:26.751Z,0.00
2018-02-14T04:53:26.736Z,0.00
2018-02-14T04:54:26.684Z,0.00
2018-02-14T04:55:26.676Z,0.00
2018-02-14T04:56:26.617Z,0.00
2018-02-14T04:57:26.585Z,0.00
2018-02-14T04:58:26.548Z,0.00
2018-02-14T04:59:26.519Z,0.00
2018-02-14T05:00:27.307Z,0.00
2018-02-14T05:01:26.446Z,0.00
2018-02-14T05:02:26.408Z,0.00
2018-02-14T05:03:26.374Z,0.00
2018-02-14T05:04:26.340Z,0.00
2018-02-14T05:05:26.333Z,0.00
2018-02-14T05:06:26.271Z,0.00
2018-02-14T05:07:26.235Z,0.00
2018-02-14T05:08:26.202Z,0.00
2018-02-14T05:09:26.168Z,0.00
2018-02-14T05:10:26.168Z,0.00
2018-02-14T05:11:26.104Z,0.00
2018-02-14T05:12:26.063Z,0.00
2018-02-14T05:13:26.032Z,0.00
2018-02-14T05:14:26.001Z,0.00
2018-02-14T05:15:25.989Z,0.00
2018-02-14T05:16:25.927Z,0.00
2018-02-14T05:17:25.895Z,0.00
2018-02-14T05:18:25.862Z,0.00
2018-02-14T05:19:25.827Z,0.00
2018-02-14T05:20:25.817Z,0.00
2018-02-14T05:21:25.764Z,0.00
2018-02-14T05:22:25.726Z,0.00
2018-02-14T05:23:25.687Z,0.00
2018-02-14T05:24:25.653Z,0.00
2018-02-14T05:25:25.644Z,0.00
2018-02-14T05:26:25.588Z,0.00
2018-02-14T05:27:25.558Z,0.00
2018-02-14T05:28:25.518Z,0.00
2018-02-14T05:29:25.483Z,0.00
2018-02-14T05:30:25.476Z,0.00
2018-02-14T05:31:25.418Z,0.00
2018-02-14T05:32:25.385Z,0.00
2018-02-14T05:33:25.345Z,0.00
2018-02-14T05:34:25.314Z,0.00
2018-02-14T05:35:25.310Z,0.00
2018-02-14T05:36:25.242Z,0.00
2018-02-14T05:37:25.214Z,0.00
2018-02-14T05:38:25.176Z,0.00
2018-02-14T05:39:25.157Z,0.00
2018-02-14T05:40:25.801Z,0.00
2018-02-14T05:41:25.076Z,0.00
2018-02-14T05:42:25.055Z,0.00
2018-02-14T05:43:25.007Z,0.00
2018-02-14T05:44:24.968Z,0.00
2018-02-14T05:45:24.978Z,0.00
2018-02-14T05:46:24.905Z,0.00
2018-02-14T05:47:24.867Z,0.00
2018-02-14T05:48:24.850Z,0.00
2018-02-14T05:49:24.802Z,0.00
2018-02-14T05:50:24.791Z,0.00
2018-02-14T05:51:24.731Z,0.00
2018-02-14T05:52:24.695Z,0.00
2018-02-14T05:53:24.666Z,0.00
2018-02-14T05:54:24.628Z,0.00
2018-02-14T05:55:24.629Z,0.00
2018-02-14T05:56:24.560Z,0.00
2018-02-14T05:57:24.529Z,0.00
2018-02-14T05:58:24.498Z,0.00
2018-02-14T05:59:24.458Z,0.00
2018-02-14T06:00:24.470Z,0.00
2018-02-14T06:01:24.390Z,0.00
2018-02-14T06:02:24.401Z,0.00
2018-02-14T06:03:24.328Z,0.00
2018-02-14T06:04:24.296Z,0.00
2018-02-14T06:05:24.285Z,0.00
2018-02-14T06:06:24.223Z,0.00
2018-02-14T06:07:24.185Z,0.00
2018-02-14T06:08:24.148Z,0.00
2018-02-14T06:09:24.114Z,0.00
2018-02-14T06:10:24.115Z,0.00
2018-02-14T06:11:24.044Z,0.00
2018-02-14T06:12:24.015Z,0.00
2018-02-14T06:13:23.976Z,0.00
2018-02-14T06:14:23.943Z,0.00
2018-02-14T06:15:23.940Z,0.00
2018-02-14T06:16:23.912Z,0.00
2018-02-14T06:17:23.849Z,0.00
2018-02-14T06:18:23.810Z,5.63
2018-02-14T06:19:23.769Z,5.63
2018-02-14T06:20:23.771Z,5.63
2018-02-14T06:21:23.700Z,5.63
2018-02-14T06:22:23.668Z,5.63
2018-02-14T06:23:23.633Z,5.63
2018-02-14T06:24:23.601Z,5.63
2018-02-14T06:25:23.591Z,5.63
2018-02-14T06:26:23.535Z,11.25
2018-02-14T06:27:23.500Z,11.25
2018-02-14T06:28:23.507Z,11.25
2018-02-14T06:29:23.433Z,11.25
2018-02-14T06:30:23.435Z,11.25
2018-02-14T06:31:23.364Z,16.88
2018-02-14T06:32:23.330Z,16.88
2018-02-14T06:33:23.291Z,16.88
2018-02-14T06:34:23.338Z,16.88
2018-02-14T06:35:23.251Z,22.50
2018-02-14T06:36:23.190Z,22.50
2018-02-14T06:37:23.158Z,22.50
2018-02-14T06:38:23.133Z,22.50
2018-02-14T06:39:23.089Z,28.13
2018-02-14T06:40:23.082Z,28.13
2018-02-14T06:41:23.026Z,28.13
2018-02-14T06:42:22.991Z,33.75
2018-02-14T06:43:22.951Z,33.75
2018-02-14T06:44:22.918Z,33.75
2018-02-14T06:45:22.907Z,33.75
2018-02-14T06:46:22.845Z,39.38
2018-02-14T06:47:22.813Z,39.38
2018-02-14T06:48:22.778Z,39.38
2018-02-14T06:49:22.746Z,45.00
2018-02-14T06:50:22.733Z,45.00
2018-02-14T06:51:22.679Z,45.00
2018-02-14T06:52:22.653Z,50.63
2018-02-14T06:53:22.611Z,50.63
2018-02-14T06:54:22.573Z,50.63
2018-02-14T06:55:22.566Z,56.25
2018-02-14T06:56:22.502Z,56.25
2018-02-14T06:57:22.474Z,56.25
2018-02-14T06:58:22.441Z,61.88
2018-02-14T06:59:22.410Z,61.88
2018-02-14T07:00:22.394Z,61.88
2018-02-14T07:01:22.337Z,61.88
2018-02-14T07:02:22.303Z,67.50
2018-02-14T07:03:22.263Z,67.50
2018-02-14T07:04:22.227Z,67.50
2018-02-14T07:05:22.224Z,73.13
2018-02-14T07:06:22.160Z,73.13
2018-02-14T07:07:22.128Z,73.13
2018-02-14T07:08:22.091Z,78.75
2018-02-14T07:09:22.060Z,78.75
2018-02-14T07:10:22.049Z,78.75
2018-02-14T07:11:21.990Z,84.38
2018-02-14T07:12:21.958Z,84.38
2018-02-14T07:13:21.922Z,84.38
2018-02-14T07:14:21.887Z,90.00
2018-02-14T07:15:21.884Z,90.00
2018-02-14T07:16:21.824Z,90.00
2018-02-14T07:17:21.788Z,95.63
2018-02-14T07:18:21.754Z,95.63
2018-02-14T07:19:21.719Z,95.63
2018-02-14T07:20:21.712Z,101.25
2018-02-14T07:21:21.649Z,101.25
2018-02-14T07:22:21.625Z,106.88
2018-02-14T07:23:21.583Z,112.50
2018-02-14T07:24:21.546Z,112.50
2018-02-14T07:25:21.552Z,118.13
2018-02-14T07:26:21.480Z,123.75
2018-02-14T07:27:21.447Z,123.75
2018-02-14T07:28:21.412Z,123.75
2018-02-14T07:29:21.378Z,129.38
2018-02-14T07:30:21.383Z,129.38
2018-02-14T07:31:21.320Z,129.38
2018-02-14T07:32:21.287Z,129.38
2018-02-14T07:33:21.242Z,135.00
2018-02-14T07:34:21.212Z,140.63
2018-02-14T07:35:21.202Z,140.63
2018-02-14T07:36:21.147Z,146.25
2018-02-14T07:37:21.124Z,151.88
2018-02-14T07:38:21.075Z,151.88
2018-02-14T07:39:21.044Z,157.50
2018-02-14T07:40:21.042Z,157.50
2018-02-14T07:41:20.979Z,163.13
2018-02-14T07:42:20.946Z,168.75
2018-02-14T07:43:20.909Z,168.75
2018-02-14T07:44:20.877Z,174.38
2018-02-14T07:45:20.869Z,174.38
2018-02-14T07:46:20.813Z,180.00
2018-02-14T07:47:20.772Z,185.63
2018-02-14T07:48:20.745Z,191.25
2018-02-14T07:49:20.721Z,191.25
2018-02-14T07:50:20.702Z,191.25
2018-02-14T07:51:20.642Z,196.88
2018-02-14T07:52:20.612Z,196.88
2018-02-14T07:53:20.573Z,202.50
2018-02-14T07:54:20.543Z,208.13
2018-02-14T07:55:20.539Z,213.75
2018-02-14T07:56:20.478Z,219.38
2018-02-14T07:57:20.446Z,225.00
2018-02-14T07:58:20.414Z,230.63
2018-02-14T07:59:20.433Z,236.25
2018-02-14T08:00:20.380Z,241.88
2018-02-14T08:01:20.321Z,247.50
2018-02-14T08:02:20.289Z,253.13
2018-02-14T08:03:20.263Z,253.13
2018-02-14T08:04:20.223Z,258.75
2018-02-14T08:05:20.215Z,258.75
2018-02-14T08:06:20.159Z,270.00
2018-02-14T08:07:20.123Z,275.63
2018-02-14T08:08:20.090Z,286.88
2018-02-14T08:09:20.067Z,286.88
2018-02-14T08:10:20.058Z,292.50
2018-02-14T08:11:20.004Z,298.13
2018-02-14T08:12:19.969Z,331.88
2018-02-14T08:13:19.938Z,382.50
2018-02-14T08:14:19.911Z,427.50
2018-02-14T08:15:19.902Z,433.13
2018-02-14T08:16:19.840Z,444.38
2018-02-14T08:17:19.810Z,472.50
2018-02-14T08:18:19.794Z,511.88
2018-02-14T08:19:19.748Z,551.25
2018-02-14T08:20:19.754Z,573.75
2018-02-14T08:21:19.693Z,568.13
2018-02-14T08:22:19.662Z,635.63
2018-02-14T08:23:19.641Z,691.88
2018-02-14T08:24:19.603Z,731.25
2018-02-14T08:25:19.609Z,742.50
2018-02-14T08:26:19.549Z,765.00
2018-02-14T08:27:19.514Z,781.88
2018-02-14T08:28:19.483Z,804.38
2018-02-14T08:29:19.455Z,821.25
2018-02-14T08:30:19.457Z,838.13
2018-02-14T08:31:19.401Z,843.75
2018-02-14T08:32:19.375Z,860.63
2018-02-14T08:33:19.354Z,855.00
2018-02-14T08:34:19.359Z,860.63
2018-02-14T08:35:19.322Z,883.13
2018-02-14T08:36:19.268Z,894.38
2018-02-14T08:37:19.249Z,911.25
2018-02-14T08:38:19.220Z,922.50
2018-02-14T08:39:19.194Z,928.13
2018-02-14T08:40:19.193Z,928.13
2018-02-14T08:41:19.157Z,945.00
2018-02-14T08:42:19.116Z,973.13
2018-02-14T08:43:19.124Z,990.00
2018-02-14T08:44:19.072Z,978.75
2018-02-14T08:45:19.065Z,1012.50
2018-02-14T08:46:19.020Z,1012.50
2018-02-14T08:47:18.993Z,995.63
2018-02-14T08:48:18.968Z,984.38
2018-02-14T08:49:18.947Z,978.75
2018-02-14T08:50:18.951Z,973.13
2018-02-14T08:51:18.919Z,945.00
2018-02-14T08:52:18.875Z,945.00
2018-02-14T08:53:18.851Z,945.00
2018-02-14T08:54:18.826Z,990.00
2018-02-14T08:55:18.828Z,1001.25
2018-02-14T08:56:18.785Z,1035.00
2018-02-14T08:57:18.767Z,1063.13
2018-02-14T08:58:18.771Z,1068.75
2018-02-14T08:59:18.718Z,1074.38
2018-02-14T09:00:18.723Z,1102.50
2018-02-14T09:01:18.685Z,1125.00
2018-02-14T09:02:18.651Z,1125.00
2018-02-14T09:03:18.639Z,1170.00
2018-02-14T09:04:18.611Z,1192.50
2018-02-14T09:05:18.625Z,1175.63
2018-02-14T09:06:18.566Z,1209.38
2018-02-14T09:07:18.540Z,1220.63
2018-02-14T09:08:18.516Z,1209.38
2018-02-14T09:09:18.499Z,1192.50
2018-02-14T09:10:18.506Z,1192.50
2018-02-14T09:11:18.465Z,1192.50
2018-02-14T09:12:18.439Z,1175.63
2018-02-14T09:13:18.417Z,1164.38
2018-02-14T09:14:18.418Z,1186.88
2018-02-14T09:15:18.403Z,1209.38
2018-02-14T09:16:18.362Z,1203.75
2018-02-14T09:17:18.338Z,1181.25
2018-02-14T09:18:18.315Z,1170.00
2018-02-14T09:19:18.295Z,1215.00
2018-02-14T09:20:18.327Z,1248.75
2018-02-14T09:21:18.256Z,1260.00
2018-02-14T09:22:18.236Z,1265.63
2018-02-14T09:23:18.226Z,1310.63
2018-02-14T09:24:18.202Z,1299.38
2018-02-14T09:25:18.206Z,1288.13
2018-02-14T09:26:18.156Z,1299.38
2018-02-14T09:27:18.159Z,1316.25
2018-02-14T09:28:18.138Z,1327.50
2018-02-14T09:29:18.102Z,1338.75
2018-02-14T09:30:18.110Z,1423.13
2018-02-14T09:31:18.082Z,1417.50
2018-02-14T09:32:18.035Z,1411.88
2018-02-14T09:33:18.018Z,1423.13
2018-02-14T09:34:18.004Z,1417.50
2018-02-14T09:35:18.012Z,1411.88
2018-02-14T09:36:17.959Z,1411.88
2018-02-14T09:37:17.941Z,1417.50
2018-02-14T09:38:17.964Z,1434.38
2018-02-14T09:39:17.908Z,1456.88
2018-02-14T09:40:17.915Z,1445.63
2018-02-14T09:41:17.869Z,1451.25
2018-02-14T09:42:17.852Z,1507.50
2018-02-14T09:43:17.836Z,1530.00
2018-02-14T09:44:17.838Z,1580.63
2018-02-14T09:45:17.790Z,1530.00
2018-02-14T09:46:17.926Z,1541.25
2018-02-14T09:47:17.757Z,1580.63
2018-02-14T09:48:17.906Z,1586.25
2018-02-14T09:49:17.746Z,1546.88
2018-02-14T09:50:17.723Z,1552.50
2018-02-14T09:51:17.681Z,1586.25
2018-02-14T09:52:17.673Z,1558.13
2018-02-14T09:53:17.646Z,1518.75
2018-02-14T09:54:17.627Z,1541.25
2018-02-14T09:55:17.647Z,1563.75
2018-02-14T09:56:17.592Z,1586.25
2018-02-14T09:57:17.569Z,1586.25
2018-02-14T09:58:17.575Z,1580.63
2018-02-14T09:59:17.535Z,1653.75
2018-02-14T10:00:17.517Z,1681.88
2018-02-14T10:01:17.846Z,1603.13
2018-02-14T10:02:17.490Z,1620.00
2018-02-14T10:03:17.464Z,1665.00
2018-02-14T10:04:17.444Z,1693.13
2018-02-14T10:05:17.430Z,1625.63
2018-02-14T10:06:17.452Z,1721.25
2018-02-14T10:07:17.400Z,1738.13
2018-02-14T10:08:17.389Z,1715.63
2018-02-14T10:09:17.356Z,1715.63
2018-02-14T10:10:17.338Z,1676.25
2018-02-14T10:11:17.320Z,1704.38
2018-02-14T10:12:17.330Z,1755.00
2018-02-14T10:13:17.292Z,1726.88
2018-02-14T10:14:17.268Z,1721.25
2018-02-14T10:15:17.260Z,1726.88
2018-02-14T10:16:17.232Z,1777.50
2018-02-14T10:17:17.261Z,1800.00
2018-02-14T10:18:17.196Z,1828.13
2018-02-14T10:19:17.182Z,1828.13
2018-02-14T10:20:17.160Z,1845.00
2018-02-14T10:21:17.151Z,1884.38
2018-02-14T10:22:17.134Z,1833.75
2018-02-14T10:23:17.137Z,1743.75
2018-02-14T10:24:17.091Z,1771.88
2018-02-14T10:25:17.101Z,1878.75
2018-02-14T10:26:17.069Z,1884.38
2018-02-14T10:27:17.038Z,1845.00
2018-02-14T10:28:17.023Z,1828.13
2018-02-14T10:29:17.010Z,1895.63
2018-02-14T10:30:17.015Z,1929.38
2018-02-14T10:31:16.971Z,1878.75
2018-02-14T10:32:16.967Z,1800.00
2018-02-14T10:33:16.937Z,1766.25
2018-02-14T10:34:16.921Z,1788.75
2018-02-14T10:35:16.933Z,1816.88
2018-02-14T10:36:16.898Z,1867.50
2018-02-14T10:37:16.874Z,1878.75
2018-02-14T10:38:16.853Z,1890.00
2018-02-14T10:39:16.840Z,1946.25
2018-02-14T10:40:16.892Z,1968.75
2018-02-14T10:41:17.098Z,1946.25
2018-02-14T10:42:16.783Z,1918.13
2018-02-14T10:43:16.781Z,1957.50
2018-02-14T10:44:16.759Z,2036.25
2018-02-14T10:45:16.739Z,2030.63
2018-02-14T10:46:16.757Z,2047.50
2018-02-14T10:47:16.708Z,2126.25
2018-02-14T10:48:16.690Z,2092.50
2018-02-14T10:49:16.725Z,2070.00
2018-02-14T10:50:16.688Z,2075.63
2018-02-14T10:51:16.651Z,2115.00
2018-02-14T10:52:16.632Z,2126.25
2018-02-14T10:53:16.645Z,2115.00
2018-02-14T10:54:16.604Z,2137.50
2018-02-14T10:55:16.608Z,2176.88
2018-02-14T10:56:16.587Z,2171.25
2018-02-14T10:57:16.561Z,2160.00
2018-02-14T10:58:16.590Z,2126.25
2018-02-14T10:59:16.599Z,2086.88
2018-02-14T11:00:16.742Z,2109.38
2018-02-14T11:01:16.500Z,2154.38
2018-02-14T11:02:16.478Z,2160.00
2018-02-14T11:03:16.472Z,2115.00
2018-02-14T11:04:16.467Z,2120.63
2018-02-14T11:05:16.459Z,2154.38
2018-02-14T11:06:16.422Z,2148.75
2018-02-14T11:07:16.403Z,2120.63
2018-02-14T11:08:16.392Z,2165.63
2018-02-14T11:09:16.376Z,2154.38
2018-02-14T11:10:16.379Z,2086.88
2018-02-14T11:11:16.341Z,2086.88
2018-02-14T11:12:16.327Z,2165.63
2018-02-14T11:13:16.317Z,2278.13
2018-02-14T11:14:16.307Z,2244.38
2018-02-14T11:15:16.322Z,2227.50
2018-02-14T11:16:16.264Z,2205.00
2018-02-14T11:17:16.254Z,2182.50
2018-02-14T11:18:16.239Z,2199.38
2018-02-14T11:19:16.224Z,2199.38
2018-02-14T11:20:16.208Z,2188.13
2018-02-14T11:21:16.235Z,2154.38
2018-02-14T11:22:16.186Z,2205.00
2018-02-14T11:23:16.172Z,2227.50
2018-02-14T11:24:16.151Z,2278.13
2018-02-14T11:25:16.142Z,2351.25
2018-02-14T11:26:16.150Z,2418.75
2018-02-14T11:27:16.136Z,2452.50
2018-02-14T11:28:16.110Z,2520.00
2018-02-14T11:29:16.242Z,2463.75
2018-02-14T11:30:16.337Z,2503.13
2018-02-14T11:31:16.052Z,2514.38
2018-02-14T11:32:16.039Z,2559.38
2018-02-14T11:33:16.042Z,2525.63
2018-02-14T11:34:16.018Z,2520.00
2018-02-14T11:35:16.024Z,2553.75
2018-02-14T11:36:15.992Z,2475.00
2018-02-14T11:37:16.041Z,2446.88
2018-02-14T11:38:15.967Z,2475.00
2018-02-14T11:39:15.950Z,2503.13
2018-02-14T11:40:15.942Z,2514.38
2018-02-14T11:41:15.920Z,2503.13
2018-02-14T11:42:15.911Z,2480.63
2018-02-14T11:43:15.928Z,2430.00
2018-02-14T11:44:15.885Z,2531.25
2018-02-14T11:45:15.912Z,2542.50
2018-02-14T11:46:15.879Z,2514.38
2018-02-14T11:47:15.844Z,2475.00
2018-02-14T11:48:15.837Z,2514.38
2018-02-14T11:49:15.824Z,2598.75
2018-02-14T11:50:15.857Z,2570.63
2018-02-14T11:51:15.800Z,2553.75
2018-02-14T11:52:15.787Z,2542.50
2018-02-14T11:53:15.782Z,2548.13
2018-02-14T11:54:15.772Z,2593.13
2018-02-14T11:55:15.794Z,2581.88
2018-02-14T11:56:15.741Z,2508.75
2018-02-14T11:57:15.731Z,2469.38
2018-02-14T11:58:15.718Z,2570.63
2018-02-14T11:59:15.713Z,2570.63
2018-02-14T12:00:15.699Z,2598.75
2018-02-14T12:01:15.719Z,2593.13
2018-02-14T12:02:15.676Z,2711.25
2018-02-14T12:03:15.666Z,2632.50
2018-02-14T12:04:16.622Z,2694.38
2018-02-14T12:05:15.677Z,2643.75
2018-02-14T12:06:15.690Z,2581.88
2018-02-14T12:07:15.625Z,2621.25
2018-02-14T12:08:15.617Z,2570.63
2018-02-14T12:09:15.638Z,2610.00
2018-02-14T12:10:15.643Z,2553.75
2018-02-14T12:11:15.590Z,2587.50
2018-02-14T12:12:15.577Z,922.50
2018-02-14T12:13:15.567Z,2570.63
2018-02-14T12:14:15.563Z,2531.25
2018-02-14T12:15:15.580Z,2520.00
2018-02-14T12:16:15.540Z,1563.75
2018-02-14T12:17:15.531Z,2559.38
2018-02-14T12:18:15.520Z,2283.75
2018-02-14T12:19:15.537Z,1788.75
2018-02-14T12:20:15.536Z,2407.50
2018-02-14T12:21:15.523Z,1895.63
2018-02-14T12:22:15.496Z,697.50
2018-02-14T12:23:15.497Z,1800.00
2018-02-14T12:24:15.558Z,613.13
2018-02-14T12:25:15.534Z,523.13
2018-02-14T12:26:15.435Z,478.13
2018-02-14T12:27:15.420Z,472.50
2018-02-14T12:28:15.416Z,466.88
2018-02-14T12:29:15.401Z,444.38
2018-02-14T12:30:15.407Z,433.13
2018-02-14T12:31:15.378Z,427.50
2018-02-14T12:32:15.396Z,461.25
2018-02-14T12:33:15.331Z,590.63
2018-02-14T12:34:15.317Z,624.38
2018-02-14T12:35:15.330Z,635.63
2018-02-14T12:36:15.283Z,1833.75
2018-02-14T12:37:15.272Z,2469.38
2018-02-14T12:38:15.253Z,2379.38
2018-02-14T12:39:15.325Z,2306.25
2018-02-14T12:40:15.249Z,2244.38
2018-02-14T12:41:15.202Z,1068.75
2018-02-14T12:42:15.184Z,2272.50
2018-02-14T12:43:15.203Z,540.00
2018-02-14T12:44:15.145Z,534.38
2018-02-14T12:45:15.130Z,421.88
2018-02-14T12:46:15.139Z,371.25
2018-02-14T12:47:15.096Z,337.50